Time;durP1;ratioP1;P1;durP2;ratioP2;P2;SDS_P1;SDS_P2;PMS_P1;PMS_P2;Temp;Humidity;BMP_temperature;BMP_pressure;BME280_temperature;BME280_humidity;BME280_pressure;Samples;Min_cycle;Max_cycle;Signal;HPM_P1;HPM_P2
2022/12/01 00:02:20;;;;;;;36.67;21.53;;;4.70;36.70;;;;;;5022993;28;20484;-71
2022/12/01 00:04:47;;;;;;;32.73;19.33;;;4.70;36.60;;;;;;5023556;28;20873;-72
2022/12/01 00:07:14;;;;;;;42.57;22.67;;;4.70;36.70;;;;;;5026052;28;20490;-71
2022/12/01 00:12:26;;;;;;;37.50;20.70;;;4.70;36.80;;;;;;5014846;28;20450;-70
2022/12/01 00:14:59;;;;;;;39.57;20.50;;;4.60;36.80;;;;;;5020150;28;20456;-71
2022/12/01 00:17:27;;;;;;;32.50;19.93;;;4.60;37.00;;;;;;5022642;28;20520;-71
2022/12/01 00:19:54;;;;;;;37.50;19.80;;;4.60;37.10;;;;;;5020107;28;20569;-69
2022/12/01 00:22:21;;;;;;;37.07;21.17;;;4.70;37.30;;;;;;5026258;28;20458;-70
2022/12/01 00:24:50;;;;;;;35.27;20.00;;;4.70;37.20;;;;;;5022684;28;20906;-71
2022/12/01 00:27:16;;;;;;;32.93;18.87;;;4.70;37.30;;;;;;5023089;28;20470;-71
2022/12/01 00:29:43;;;;;;;32.37;19.47;;;4.70;37.30;;;;;;5022099;28;20464;-70
2022/12/01 00:32:10;;;;;;;31.53;19.13;;;4.70;37.40;;;;;;5020363;28;20879;-70
2022/12/01 00:34:37;;;;;;;33.43;19.77;;;4.70;37.30;;;;;;5025007;28;22472;-70
2022/12/01 00:37:04;;;;;;;33.10;18.87;;;4.70;37.40;;;;;;5025801;28;20967;-70
2022/12/01 00:39:31;;;;;;;36.00;19.67;;;4.70;37.40;;;;;;5019639;28;20486;-70
2022/12/01 00:41:59;;;;;;;35.80;20.10;;;4.70;37.50;;;;;;5022746;28;20466;-72
2022/12/01 00:44:26;;;;;;;33.47;18.17;;;4.60;37.30;;;;;;5024817;28;20478;-72
2022/12/01 00:46:53;;;;;;;35.47;19.23;;;4.60;37.40;;;;;;5029922;28;20455;-71
2022/12/01 00:49:20;;;;;;;37.17;21.60;;;4.60;37.50;;;;;;5026009;28;21014;-72
2022/12/01 00:51:47;;;;;;;32.70;18.87;;;4.60;37.40;;;;;;5026757;28;20466;-71
2022/12/01 00:54:13;;;;;;;34.67;19.33;;;4.60;37.50;;;;;;5027460;28;20463;-70
2022/12/01 00:56:40;;;;;;;39.87;19.20;;;4.60;37.60;;;;;;5023896;28;20460;-71
2022/12/01 00:59:08;;;;;;;32.10;19.37;;;4.60;37.60;;;;;;5021901;28;20486;-70
2022/12/01 01:01:35;;;;;;;35.90;19.43;;;4.50;37.80;;;;;;5024521;28;20483;-71
2022/12/01 01:04:02;;;;;;;37.27;20.77;;;4.50;37.80;;;;;;5028851;28;20478;-70
2022/12/01 01:06:29;;;;;;;36.27;20.33;;;4.60;37.80;;;;;;5028502;28;20465;-70
2022/12/01 01:08:56;;;;;;;38.53;20.87;;;4.50;37.90;;;;;;5024745;28;20483;-70
2022/12/01 01:11:22;;;;;;;38.80;21.30;;;4.60;37.90;;;;;;5024981;28;20463;-70
2022/12/01 01:13:49;;;;;;;36.27;20.00;;;4.60;37.90;;;;;;5027139;28;20459;-71
2022/12/01 01:16:19;;;;;;;33.47;17.77;;;4.60;37.90;;;;;;5021970;28;21129;-71
2022/12/01 01:18:49;;;;;;;34.20;19.80;;;4.60;37.90;;;;;;5029006;28;20474;-71
2022/12/01 01:21:18;;;;;;;38.03;21.10;;;4.60;37.90;;;;;;5021314;28;20462;-71
2022/12/01 01:23:45;;;;;;;38.17;21.13;;;4.60;38.00;;;;;;5015983;28;20475;-71
2022/12/01 01:26:18;;;;;;;38.00;19.83;;;4.60;37.90;;;;;;5026871;28;20462;-71
2022/12/01 01:28:45;;;;;;;38.43;20.80;;;4.60;38.00;;;;;;5024743;28;20490;-71
2022/12/01 01:31:14;;;;;;;37.63;21.10;;;4.60;38.00;;;;;;5026483;28;20520;-71
2022/12/01 01:33:42;;;;;;;37.00;19.70;;;4.60;38.00;;;;;;5025975;28;20463;-70
2022/12/01 01:36:10;;;;;;;35.97;19.43;;;4.60;38.00;;;;;;5025270;28;20510;-70
2022/12/01 01:38:37;;;;;;;41.30;22.53;;;4.70;38.20;;;;;;5015857;28;20498;-71
2022/12/01 01:41:05;;;;;;;37.53;21.83;;;4.70;38.10;;;;;;5029067;28;20466;-70
2022/12/01 01:43:54;;;;;;;38.83;21.20;;;4.70;38.10;;;;;;5027511;28;20455;-70
2022/12/01 01:46:22;;;;;;;36.60;21.07;;;4.70;38.30;;;;;;5015790;28;20470;-70
2022/12/01 01:48:53;;;;;;;41.93;21.00;;;4.70;38.10;;;;;;5024166;28;20483;-71
2022/12/01 01:51:24;;;;;;;37.47;21.33;;;4.70;38.10;;;;;;5025007;28;20481;-71
2022/12/01 01:53:54;;;;;;;35.70;19.27;;;4.70;38.00;;;;;;5024986;28;20463;-71
2022/12/01 01:56:22;;;;;;;36.20;18.30;;;4.70;38.10;;;;;;5022347;28;20459;-70
2022/12/01 01:58:49;;;;;;;34.63;19.20;;;4.70;38.10;;;;;;5028074;28;20474;-70
2022/12/01 02:01:16;;;;;;;38.20;20.47;;;4.70;38.10;;;;;;5018891;28;20475;-70
2022/12/01 02:03:43;;;;;;;38.67;20.60;;;4.70;38.20;;;;;;5018187;28;20451;-70
2022/12/01 02:06:12;;;;;;;37.57;19.63;;;4.70;38.00;;;;;;5022943;28;21105;-69
2022/12/01 02:08:39;;;;;;;37.73;18.97;;;4.70;38.10;;;;;;5025440;28;20567;-70
2022/12/01 02:11:28;;;;;;;38.53;19.97;;;4.70;37.90;;;;;;5027971;28;20459;-71
2022/12/01 02:14:08;;;;;;;35.43;20.03;;;4.70;38.10;;;;;;5020413;28;20476;-70
2022/12/01 02:16:44;;;;;;;37.60;18.40;;;4.70;38.00;;;;;;5018065;28;20464;-70
2022/12/01 02:19:38;;;;;;;35.40;19.77;;;4.70;37.90;;;;;;5022528;28;20997;-70
2022/12/01 02:22:20;;;;;;;38.37;19.50;;;4.70;38.00;;;;;;5025559;28;20455;-72
2022/12/01 02:25:27;;;;;;;35.43;18.93;;;4.70;38.00;;;;;;5021333;28;20478;-72
2022/12/01 02:28:20;;;;;;;41.27;19.03;;;4.70;38.10;;;;;;4946764;28;20633;-71
2022/12/01 02:30:52;;;;;;;39.27;20.00;;;4.70;38.20;;;;;;4938091;28;20475;-71
2022/12/01 02:33:25;;;;;;;37.47;19.00;;;4.70;38.10;;;;;;4997051;28;20454;-70
2022/12/01 02:36:00;;;;;;;37.60;19.87;;;4.70;37.90;;;;;;5026044;28;20474;-71
2022/12/01 02:38:31;;;;;;;35.77;20.93;;;4.60;38.00;;;;;;5025065;28;20486;-70
2022/12/01 02:41:04;;;;;;;34.73;19.30;;;4.60;38.10;;;;;;5022761;28;20458;-71
2022/12/01 02:43:35;;;;;;;36.20;20.97;;;4.60;38.10;;;;;;5021651;28;20459;-70
2022/12/01 02:46:09;;;;;;;39.20;19.80;;;4.60;38.20;;;;;;5024933;28;20494;-71
2022/12/01 02:48:41;;;;;;;49.00;23.93;;;4.60;38.30;;;;;;5022047;28;20510;-71
2022/12/01 02:51:13;;;;;;;35.87;18.80;;;4.60;38.20;;;;;;5022275;28;20554;-71
2022/12/01 02:53:39;;;;;;;37.97;21.40;;;4.60;38.30;;;;;;5016687;28;20540;-71
2022/12/01 02:56:10;;;;;;;34.63;19.60;;;4.60;38.30;;;;;;5013202;28;20469;-73
2022/12/01 02:58:36;;;;;;;38.97;21.30;;;4.60;38.30;;;;;;5022443;28;20548;-70
2022/12/01 03:01:16;;;;;;;36.37;20.23;;;4.60;38.30;;;;;;5025859;28;20466;-72
2022/12/01 03:04:00;;;;;;;41.70;21.07;;;4.60;38.40;;;;;;5023980;28;20537;-72
2022/12/01 03:06:39;;;;;;;39.80;20.63;;;4.70;38.40;;;;;;5021836;28;20447;-73
2022/12/01 03:09:14;;;;;;;37.37;21.43;;;4.60;38.20;;;;;;5023239;28;20498;-70
2022/12/01 03:11:49;;;;;;;39.97;20.70;;;4.60;38.20;;;;;;5019852;28;20462;-71
2022/12/01 03:14:30;;;;;;;42.43;23.50;;;4.60;38.10;;;;;;5020932;28;20459;-71
2022/12/01 03:17:02;;;;;;;39.00;20.70;;;4.60;38.20;;;;;;5024185;28;20470;-71
2022/12/01 03:19:34;;;;;;;39.70;20.70;;;4.60;38.20;;;;;;5022637;28;20482;-72
2022/12/01 03:22:08;;;;;;;39.97;21.53;;;4.60;38.30;;;;;;5024639;28;20459;-71
2022/12/01 03:24:37;;;;;;;40.30;22.23;;;4.60;38.30;;;;;;5021593;28;20501;-70
2022/12/01 03:27:06;;;;;;;39.50;20.57;;;4.60;38.30;;;;;;5025388;28;20948;-71
2022/12/01 03:29:38;;;;;;;35.17;21.37;;;4.60;38.30;;;;;;5026558;28;20558;-71
2022/12/01 03:32:11;;;;;;;39.80;21.93;;;4.60;38.30;;;;;;5020565;28;20845;-71
2022/12/01 03:34:43;;;;;;;40.07;21.63;;;4.60;38.40;;;;;;5017706;28;20459;-71
2022/12/01 03:37:16;;;;;;;37.57;20.33;;;4.60;38.50;;;;;;5018641;28;20463;-71
2022/12/01 03:39:46;;;;;;;39.80;22.10;;;4.60;38.50;;;;;;5017101;28;20485;-71
2022/12/01 03:42:17;;;;;;;41.33;22.33;;;4.60;38.40;;;;;;5015075;28;20455;-70
2022/12/01 03:44:47;;;;;;;40.13;20.93;;;4.60;38.40;;;;;;5016162;28;20893;-72
2022/12/01 03:47:20;;;;;;;41.90;21.80;;;4.60;38.40;;;;;;5016771;28;20494;-71
2022/12/01 03:49:50;;;;;;;39.13;22.93;;;4.60;38.30;;;;;;5023321;28;20485;-71
2022/12/01 03:52:27;;;;;;;37.53;21.83;;;4.60;38.30;;;;;;5015849;28;20456;-71
2022/12/01 03:55:02;;;;;;;36.77;21.13;;;4.60;38.40;;;;;;5019147;28;20442;-71
2022/12/01 03:57:34;;;;;;;41.40;21.77;;;4.70;38.40;;;;;;5018380;28;20466;-71
2022/12/01 04:00:02;;;;;;;40.77;20.60;;;4.60;38.30;;;;;;5010537;28;20474;-71
2022/12/01 04:02:30;;;;;;;43.10;23.93;;;4.70;38.30;;;;;;5023913;28;20467;-71
2022/12/01 04:04:57;;;;;;;40.03;22.73;;;4.70;38.30;;;;;;5012920;28;20574;-71
2022/12/01 04:07:24;;;;;;;41.43;24.67;;;4.70;38.10;;;;;;5022034;28;21998;-72
2022/12/01 04:09:51;;;;;;;37.90;21.57;;;4.70;38.10;;;;;;5024348;28;20466;-71
2022/12/01 04:12:29;;;;;;;48.73;24.60;;;4.70;38.20;;;;;;5025499;28;20459;-72
2022/12/01 04:14:56;;;;;;;39.70;22.50;;;4.70;37.80;;;;;;5023141;28;20483;-72
2022/12/01 04:17:24;;;;;;;45.20;22.37;;;4.70;37.80;;;;;;5019227;28;20581;-71
2022/12/01 04:19:54;;;;;;;43.00;23.60;;;4.70;38.00;;;;;;5019748;28;20547;-71
2022/12/01 04:22:21;;;;;;;41.17;23.53;;;4.70;38.00;;;;;;5023961;28;20501;-71
2022/12/01 04:24:48;;;;;;;42.63;21.63;;;4.70;37.90;;;;;;5021682;28;20483;-71
2022/12/01 04:27:15;;;;;;;40.53;22.47;;;4.70;38.00;;;;;;5026806;28;20830;-71
2022/12/01 04:29:42;;;;;;;39.23;21.47;;;4.70;37.90;;;;;;5027366;28;20493;-71
2022/12/01 04:32:08;;;;;;;39.50;22.67;;;4.70;37.90;;;;;;5019487;28;20589;-71
2022/12/01 04:34:35;;;;;;;39.30;22.00;;;4.60;37.90;;;;;;5023705;28;20455;-71
2022/12/01 04:37:04;;;;;;;37.87;20.87;;;4.60;38.00;;;;;;5024472;28;20451;-71
2022/12/01 04:39:31;;;;;;;39.00;20.50;;;4.60;38.10;;;;;;5022368;28;20494;-71
2022/12/01 04:41:58;;;;;;;36.73;21.30;;;4.60;38.00;;;;;;5024136;28;20490;-72
2022/12/01 04:44:25;;;;;;;35.97;21.53;;;4.60;38.10;;;;;;5028322;28;20469;-71
2022/12/01 04:46:52;;;;;;;35.60;20.50;;;4.60;38.20;;;;;;5021318;28;20477;-71
2022/12/01 04:49:19;;;;;;;39.10;20.97;;;4.60;38.20;;;;;;5020886;28;21159;-71
2022/12/01 04:51:46;;;;;;;38.80;21.27;;;4.60;38.10;;;;;;5023335;28;20993;-72
2022/12/01 04:54:14;;;;;;;45.37;20.97;;;4.60;38.10;;;;;;5027686;28;20557;-69
2022/12/01 04:56:41;;;;;;;34.43;20.17;;;4.60;38.10;;;;;;5024418;28;20469;-71
2022/12/01 04:59:09;;;;;;;37.43;21.97;;;4.60;38.00;;;;;;5025414;28;20493;-71
2022/12/01 05:01:35;;;;;;;39.70;21.33;;;4.60;38.10;;;;;;5025323;28;20530;-71
2022/12/01 05:04:03;;;;;;;39.67;21.63;;;4.60;38.20;;;;;;5022556;28;20515;-71
2022/12/01 05:06:30;;;;;;;36.47;20.00;;;4.60;38.10;;;;;;5025780;28;20974;-71
2022/12/01 05:08:59;;;;;;;32.13;18.83;;;4.60;38.10;;;;;;5021009;28;20485;-71
2022/12/01 05:11:29;;;;;;;38.07;20.20;;;4.60;38.20;;;;;;5025110;28;20830;-71
2022/12/01 05:13:56;;;;;;;32.47;19.80;;;4.60;38.20;;;;;;5019776;28;20454;-72
2022/12/01 05:16:26;;;;;;;35.53;19.57;;;4.60;38.10;;;;;;5021828;28;21065;-72
2022/12/01 05:20:55;;;;;;;37.33;19.80;;;4.60;38.30;;;;;;5030165;28;20485;-71
2022/12/01 05:21:41;;;;;;;38.60;20.10;;;4.60;38.10;;;;;;5023600;28;20548;-71
2022/12/01 05:24:09;;;;;;;36.50;19.67;;;4.60;38.20;;;;;;5020387;28;20459;-71
2022/12/01 05:26:38;;;;;;;38.57;21.10;;;4.60;38.30;;;;;;5012262;28;21226;-72
2022/12/01 05:29:05;;;;;;;38.90;20.43;;;4.60;38.30;;;;;;5026777;28;20489;-72
2022/12/01 05:31:32;;;;;;;36.47;21.20;;;4.60;38.30;;;;;;5014223;28;20479;-71
2022/12/01 05:33:59;;;;;;;36.90;21.07;;;4.60;38.30;;;;;;5018929;28;20475;-71
2022/12/01 05:36:25;;;;;;;42.50;20.50;;;4.60;38.30;;;;;;5024030;28;20468;-70
2022/12/01 05:38:53;;;;;;;42.30;23.03;;;4.60;38.30;;;;;;5020077;28;21020;-71
2022/12/01 05:41:20;;;;;;;36.20;19.83;;;4.60;38.20;;;;;;5028647;28;20473;-73
2022/12/01 05:43:48;;;;;;;39.57;20.80;;;4.60;38.20;;;;;;5020416;28;20557;-70
2022/12/01 05:46:15;;;;;;;37.20;21.00;;;4.60;38.20;;;;;;5019325;28;20874;-70
2022/12/01 05:48:42;;;;;;;44.30;22.37;;;4.60;38.20;;;;;;5025441;28;20482;-69
2022/12/01 05:51:10;;;;;;;40.20;21.73;;;4.60;38.20;;;;;;5019194;28;20475;-71
2022/12/01 05:53:37;;;;;;;41.50;23.20;;;4.60;38.20;;;;;;5024574;28;20461;-70
2022/12/01 05:56:04;;;;;;;45.00;21.60;;;4.60;38.20;;;;;;5016757;28;20459;-70
2022/12/01 05:58:31;;;;;;;47.97;22.53;;;4.60;38.10;;;;;;5018156;28;20494;-71
2022/12/01 06:00:59;;;;;;;42.60;22.80;;;4.60;38.20;;;;;;5020356;28;20474;-72
2022/12/01 06:03:26;;;;;;;42.27;22.03;;;4.60;38.10;;;;;;5023975;28;20582;-71
2022/12/01 06:05:52;;;;;;;42.93;21.83;;;4.60;38.20;;;;;;5023835;28;20494;-71
2022/12/01 06:08:19;;;;;;;42.67;22.07;;;4.60;38.20;;;;;;5024142;28;20481;-71
2022/12/01 06:10:46;;;;;;;40.20;21.30;;;4.60;38.10;;;;;;5022936;28;20455;-72
2022/12/01 06:13:13;;;;;;;41.10;21.40;;;4.60;38.10;;;;;;5022173;28;21282;-72
2022/12/01 06:15:40;;;;;;;36.97;20.70;;;4.60;38.10;;;;;;5020209;28;20459;-71
2022/12/01 06:18:08;;;;;;;41.47;22.47;;;4.60;38.10;;;;;;5027779;28;20486;-72
2022/12/01 06:20:35;;;;;;;36.37;19.93;;;4.60;38.10;;;;;;5024133;28;20464;-73
2022/12/01 06:23:01;;;;;;;37.50;21.77;;;4.60;38.00;;;;;;5019051;28;20468;-71
2022/12/01 06:25:28;;;;;;;46.90;22.40;;;4.60;38.10;;;;;;5022891;28;20475;-72
2022/12/01 06:27:56;;;;;;;47.40;24.30;;;4.50;38.10;;;;;;5028093;28;20479;-70
2022/12/01 06:30:23;;;;;;;38.30;21.77;;;4.50;38.20;;;;;;5018232;28;20460;-70
2022/12/01 06:32:50;;;;;;;41.93;22.83;;;4.50;38.30;;;;;;5023690;28;20466;-70
2022/12/01 06:35:18;;;;;;;39.77;20.83;;;4.50;38.30;;;;;;5021336;28;20543;-71
2022/12/01 06:37:45;;;;;;;39.77;21.80;;;4.50;38.30;;;;;;5017038;28;20494;-69
2022/12/01 06:40:12;;;;;;;41.77;23.90;;;4.50;38.30;;;;;;5012558;28;20463;-66
2022/12/01 06:42:39;;;;;;;47.40;23.47;;;4.50;38.40;;;;;;5019161;28;20455;-71
2022/12/01 06:45:06;;;;;;;40.67;21.20;;;4.50;38.40;;;;;;5017588;28;20462;-71
2022/12/01 06:47:33;;;;;;;47.43;22.57;;;4.50;38.50;;;;;;5026188;28;20914;-72
2022/12/01 06:50:01;;;;;;;46.63;22.63;;;4.50;38.50;;;;;;5014681;28;20464;-73
2022/12/01 06:52:29;;;;;;;43.97;23.37;;;4.50;38.60;;;;;;5020772;28;20592;-73
2022/12/01 06:54:57;;;;;;;42.23;22.37;;;4.40;38.50;;;;;;5018222;28;20551;-70
2022/12/01 06:57:24;;;;;;;40.87;21.10;;;4.50;38.60;;;;;;5015836;28;20529;-75
2022/12/01 06:59:51;;;;;;;42.80;21.23;;;4.50;38.60;;;;;;5026254;28;20470;-75
2022/12/01 07:02:18;;;;;;;38.87;22.00;;;4.50;38.60;;;;;;5017505;28;20505;-71
2022/12/01 07:04:44;;;;;;;44.17;23.20;;;4.50;38.60;;;;;;5025206;28;20486;-71
2022/12/01 07:07:11;;;;;;;33.70;19.00;;;4.50;38.70;;;;;;5017955;28;20603;-74
2022/12/01 07:09:40;;;;;;;42.27;23.10;;;4.60;38.70;;;;;;5025505;28;20463;-70
2022/12/01 07:12:07;;;;;;;43.40;24.00;;;4.60;38.60;;;;;;5019554;28;20485;-73
2022/12/01 07:14:34;;;;;;;41.33;22.63;;;4.60;38.60;;;;;;5018505;28;20471;-75
2022/12/01 07:17:01;;;;;;;39.93;22.60;;;4.60;38.50;;;;;;5020124;28;20460;-75
2022/12/01 07:19:28;;;;;;;45.50;24.10;;;4.60;38.50;;;;;;5019768;28;20506;-73
2022/12/01 07:21:55;;;;;;;37.60;20.27;;;4.60;38.50;;;;;;5017967;28;20845;-73
2022/12/01 07:24:21;;;;;;;42.73;24.30;;;4.70;38.50;;;;;;5027394;28;20470;-76
2022/12/01 07:26:50;;;;;;;39.27;21.60;;;4.60;38.40;;;;;;5020353;28;20478;-78
2022/12/01 07:29:17;;;;;;;43.03;24.30;;;4.70;38.50;;;;;;5018616;28;20483;-76
2022/12/01 07:31:43;;;;;;;40.20;21.97;;;4.70;38.30;;;;;;5023317;28;20492;-76
2022/12/01 07:34:12;;;;;;;38.00;22.07;;;4.70;38.40;;;;;;5016877;28;20467;-75
2022/12/01 07:36:39;;;;;;;40.27;22.90;;;4.80;38.40;;;;;;5016292;28;20456;-78
2022/12/01 07:39:06;;;;;;;45.77;25.03;;;4.80;37.90;;;;;;5018931;28;20585;-72
2022/12/01 07:41:34;;;;;;;39.47;23.73;;;4.80;37.80;;;;;;5002925;28;20456;-69
2022/12/01 07:44:02;;;;;;;41.43;22.17;;;4.70;37.90;;;;;;5014971;28;20474;-70
2022/12/01 07:46:29;;;;;;;44.93;23.17;;;4.70;38.20;;;;;;5001156;28;20486;-69
2022/12/01 07:48:57;;;;;;;44.80;24.47;;;4.70;38.20;;;;;;5020908;28;20571;-70
2022/12/01 07:51:25;;;;;;;47.20;24.27;;;4.70;38.30;;;;;;5010014;28;20491;-69
2022/12/01 07:53:53;;;;;;;38.83;22.63;;;4.70;38.40;;;;;;5013993;28;20458;-70
2022/12/01 07:56:21;;;;;;;43.70;23.80;;;4.70;38.50;;;;;;5019235;28;20505;-67
2022/12/01 07:58:48;;;;;;;38.57;22.47;;;4.70;38.40;;;;;;5017018;28;20479;-70
2022/12/01 08:01:17;;;;;;;41.60;24.40;;;4.70;38.40;;;;;;5024607;28;20479;-70
2022/12/01 08:03:45;;;;;;;50.87;25.07;;;4.70;38.50;;;;;;5021713;28;20462;-72
2022/12/01 08:06:11;;;;;;;39.50;21.77;;;4.70;38.50;;;;;;5018166;28;20479;-72
2022/12/01 08:08:40;;;;;;;41.50;22.97;;;4.70;38.50;;;;;;5015623;28;20479;-73
2022/12/01 08:11:10;;;;;;;49.47;23.60;;;4.80;38.50;;;;;;5020940;28;20914;-76
2022/12/01 08:13:37;;;;;;;43.57;21.30;;;4.80;38.40;;;;;;5023991;28;20768;-74
2022/12/01 08:16:04;;;;;;;40.03;21.30;;;4.80;38.40;;;;;;5018516;28;20475;-73
2022/12/01 08:18:34;;;;;;;41.77;22.90;;;4.90;38.50;;;;;;5011913;28;20483;-73
2022/12/01 08:21:00;;;;;;;46.10;22.53;;;4.90;38.40;;;;;;5018191;28;20458;-72
2022/12/01 08:23:27;;;;;;;37.30;19.90;;;4.90;38.30;;;;;;5014165;28;20462;-73
2022/12/01 08:25:54;;;;;;;40.73;22.17;;;4.90;38.10;;;;;;5016460;28;20483;-73
2022/12/01 08:28:21;;;;;;;38.17;20.80;;;4.90;38.10;;;;;;5012985;28;20482;-73
2022/12/01 08:30:48;;;;;;;40.47;21.70;;;5.00;38.00;;;;;;5013308;28;20479;-73
2022/12/01 08:33:15;;;;;;;42.30;23.27;;;5.00;38.00;;;;;;5009501;28;20467;-74
2022/12/01 08:35:43;;;;;;;36.90;21.03;;;5.00;38.00;;;;;;5014237;28;20467;-68
2022/12/01 08:38:11;;;;;;;42.63;23.10;;;5.00;38.00;;;;;;5012548;28;20499;-67
2022/12/01 08:40:37;;;;;;;38.97;21.00;;;5.00;37.90;;;;;;5017023;28;20460;-68
2022/12/01 08:43:04;;;;;;;38.00;21.33;;;5.00;37.80;;;;;;5017625;28;20784;-67
2022/12/01 08:45:31;;;;;;;43.43;22.50;;;5.00;37.80;;;;;;5019063;28;20471;-68
2022/12/01 08:47:58;;;;;;;41.27;22.17;;;5.00;37.80;;;;;;5016670;28;20479;-67
2022/12/01 08:50:28;;;;;;;43.17;23.50;;;5.10;37.90;;;;;;5012607;28;20982;-65
2022/12/01 08:52:56;;;;;;;36.07;21.60;;;5.10;38.00;;;;;;5014912;28;20455;-66
2022/12/01 08:55:23;;;;;;;38.67;22.13;;;5.10;37.90;;;;;;5018930;28;20493;-63
2022/12/01 08:57:51;;;;;;;34.70;20.40;;;5.10;38.60;;;;;;5013995;28;20480;-65
2022/12/01 09:00:18;;;;;;;43.33;22.47;;;5.10;38.10;;;;;;5022140;28;21031;-70
2022/12/01 09:02:45;;;;;;;37.93;22.40;;;5.10;38.00;;;;;;5023133;28;20466;-65
2022/12/01 09:05:12;;;;;;;38.07;19.87;;;5.10;38.00;;;;;;5013952;28;20467;-68
2022/12/01 09:07:39;;;;;;;40.37;22.43;;;5.20;37.80;;;;;;5018699;28;20491;-66
2022/12/01 09:10:09;;;;;;;40.37;20.57;;;5.20;37.70;;;;;;5024534;28;20494;-66
2022/12/01 09:12:36;;;;;;;33.50;20.00;;;5.10;37.60;;;;;;5017670;28;20459;-70
2022/12/01 09:15:03;;;;;;;39.10;23.03;;;5.20;37.30;;;;;;5022159;28;20470;-62
2022/12/01 09:17:30;;;;;;;45.53;22.60;;;5.20;37.40;;;;;;5030533;28;20990;-62
2022/12/01 09:19:57;;;;;;;36.17;21.13;;;5.20;37.40;;;;;;5031114;28;20458;-62
2022/12/01 09:22:23;;;;;;;35.60;19.87;;;5.20;37.40;;;;;;5027290;28;20470;-61
2022/12/01 09:24:50;;;;;;;38.00;21.80;;;5.20;37.30;;;;;;5021649;28;20764;-67
2022/12/01 09:27:18;;;;;;;40.60;22.97;;;5.30;37.30;;;;;;5022915;28;20518;-67
2022/12/01 09:29:45;;;;;;;36.40;21.80;;;5.30;37.50;;;;;;5023088;28;20463;-68
2022/12/01 09:32:12;;;;;;;35.83;20.03;;;5.40;37.30;;;;;;5024943;28;20483;-67
2022/12/01 09:34:38;;;;;;;36.70;21.07;;;5.40;37.20;;;;;;5023764;28;20526;-68
2022/12/01 09:37:06;;;;;;;43.10;23.37;;;5.50;37.20;;;;;;5013275;28;20554;-67
2022/12/01 09:39:33;;;;;;;42.70;23.47;;;5.50;37.10;;;;;;5019318;28;20757;-67
2022/12/01 09:42:05;;;;;;;38.67;21.20;;;5.50;37.00;;;;;;5027297;28;20458;-68
2022/12/01 09:44:38;;;;;;;42.73;24.07;;;5.40;37.00;;;;;;5028882;28;21010;-68
2022/12/01 09:47:17;;;;;;;43.00;21.80;;;5.40;37.00;;;;;;5024067;28;21041;-67
2022/12/01 09:49:55;;;;;;;40.73;21.80;;;5.40;37.10;;;;;;5024345;28;20474;-67
2022/12/01 09:52:24;;;;;;;40.37;21.77;;;5.50;37.20;;;;;;5021807;28;20466;-68
2022/12/01 09:54:53;;;;;;;38.70;21.90;;;5.50;37.20;;;;;;5019889;28;20459;-69
2022/12/01 09:57:29;;;;;;;44.70;21.80;;;5.50;36.90;;;;;;5021053;28;20455;-65
2022/12/01 09:59:59;;;;;;;41.13;22.27;;;5.50;37.00;;;;;;5023372;28;20455;-65
2022/12/01 10:02:33;;;;;;;43.53;23.00;;;5.50;36.90;;;;;;5022149;28;20475;-64
2022/12/01 10:05:03;;;;;;;42.73;23.00;;;5.50;36.60;;;;;;5020748;28;20466;-65
2022/12/01 10:07:34;;;;;;;37.60;22.03;;;5.50;36.40;;;;;;5022818;28;20502;-68
2022/12/01 10:10:03;;;;;;;41.73;20.53;;;5.60;36.20;;;;;;5029628;28;20463;-68
2022/12/01 10:12:33;;;;;;;36.60;21.63;;;5.60;36.40;;;;;;5020426;28;20490;-67
2022/12/01 10:15:15;;;;;;;41.33;22.30;;;5.60;36.50;;;;;;5025166;28;20855;-66
2022/12/01 10:17:50;;;;;;;41.50;22.27;;;5.60;36.60;;;;;;5025482;28;20475;-67
2022/12/01 10:20:23;;;;;;;39.87;21.30;;;5.60;36.40;;;;;;5022852;28;20459;-67
2022/12/01 10:23:14;;;;;;;42.90;22.87;;;5.60;36.50;;;;;;5026742;28;20459;-66
2022/12/01 10:25:51;;;;;;;40.57;22.30;;;5.60;36.30;;;;;;5019448;28;20493;-65
2022/12/01 10:28:41;;;;;;;38.23;22.43;;;5.60;36.40;;;;;;5023746;28;20490;-64
2022/12/01 10:31:17;;;;;;;42.73;22.70;;;5.60;36.40;;;;;;5020411;28;20590;-64
2022/12/01 10:33:56;;;;;;;41.17;21.73;;;5.60;36.90;;;;;;5025256;28;20462;-67
2022/12/01 10:36:24;;;;;;;34.90;19.50;;;5.60;36.40;;;;;;5021621;28;20450;-62
2022/12/01 10:38:51;;;;;;;40.20;21.77;;;5.70;36.60;;;;;;5023498;28;21082;-62
2022/12/01 10:41:20;;;;;;;35.13;20.83;;;5.70;36.50;;;;;;5024153;28;20973;-62
2022/12/01 10:43:58;;;;;;;37.10;20.70;;;5.70;37.00;;;;;;5018257;28;20835;-63
2022/12/01 10:46:32;;;;;;;37.77;21.03;;;5.80;36.60;;;;;;5018546;28;20491;-63
2022/12/01 10:49:06;;;;;;;40.43;22.17;;;5.80;36.30;;;;;;5022603;28;20474;-62
2022/12/01 10:51:47;;;;;;;38.30;21.10;;;5.80;36.40;;;;;;5018860;28;21063;-62
2022/12/01 10:54:14;;;;;;;38.37;22.40;;;5.80;36.30;;;;;;5020414;28;21092;-60
2022/12/01 10:56:45;;;;;;;39.83;21.60;;;5.80;36.00;;;;;;5025551;28;20477;-63
2022/12/01 10:59:25;;;;;;;38.60;21.10;;;5.80;36.10;;;;;;5021338;28;20966;-63
2022/12/01 11:01:54;;;;;;;34.50;20.30;;;5.80;36.20;;;;;;5018239;28;20497;-63
2022/12/01 11:04:33;;;;;;;31.83;20.60;;;5.80;36.20;;;;;;5027270;28;20460;-62
2022/12/01 11:07:00;;;;;;;35.17;21.20;;;5.80;36.20;;;;;;5018822;28;20482;-62
2022/12/01 11:09:30;;;;;;;33.93;19.17;;;5.80;36.00;;;;;;5024681;28;20494;-66
2022/12/01 11:11:59;;;;;;;38.40;23.30;;;5.80;36.00;;;;;;5015291;28;20493;-70
2022/12/01 11:14:43;;;;;;;38.07;21.83;;;5.80;36.00;;;;;;5025849;28;21136;-71
2022/12/01 11:17:26;;;;;;;37.30;22.00;;;5.80;36.10;;;;;;5021646;28;20465;-71
2022/12/01 11:19:53;;;;;;;42.80;23.00;;;5.80;36.40;;;;;;5034242;28;20486;-70
2022/12/01 11:22:23;;;;;;;41.53;23.30;;;5.80;36.30;;;;;;5025543;28;20459;-71
2022/12/01 11:25:04;;;;;;;35.80;20.87;;;5.70;36.40;;;;;;5025540;28;20981;-71
2022/12/01 11:27:34;;;;;;;39.13;20.93;;;5.80;36.60;;;;;;5029800;28;21011;-70
2022/12/01 11:30:05;;;;;;;38.83;20.03;;;5.70;37.00;;;;;;5024506;28;20477;-70
2022/12/01 11:32:36;;;;;;;38.33;21.77;;;5.70;36.40;;;;;;5022035;28;21010;-71
2022/12/01 11:35:07;;;;;;;41.50;22.03;;;5.70;36.60;;;;;;5024678;28;20470;-70
2022/12/01 11:37:38;;;;;;;32.30;20.10;;;5.70;36.60;;;;;;5019402;28;20483;-70
2022/12/01 11:40:09;;;;;;;39.40;21.60;;;5.70;36.60;;;;;;5022813;28;20982;-70
2022/12/01 11:42:36;;;;;;;38.07;20.60;;;5.70;36.70;;;;;;5026004;28;20829;-71
2022/12/01 11:45:17;;;;;;;37.37;21.60;;;5.70;36.70;;;;;;5022908;28;20517;-70
2022/12/01 11:48:02;;;;;;;44.30;23.63;;;5.70;36.70;;;;;;5021322;28;20489;-71
2022/12/01 11:50:30;;;;;;;39.07;21.90;;;5.70;36.90;;;;;;5022550;28;20463;-71
2022/12/01 11:52:57;;;;;;;35.23;20.30;;;5.70;36.80;;;;;;5027796;28;20454;-69
2022/12/01 11:55:26;;;;;;;39.83;22.60;;;5.70;36.80;;;;;;5023032;28;20621;-70
2022/12/01 11:57:56;;;;;;;43.53;24.00;;;5.70;36.90;;;;;;5014262;28;20475;-71
2022/12/01 12:00:24;;;;;;;37.53;22.00;;;5.70;36.90;;;;;;5023083;28;20957;-70
2022/12/01 12:03:19;;;;;;;39.17;21.87;;;5.70;36.90;;;;;;5020684;28;20467;-70
2022/12/01 12:06:02;;;;;;;36.60;21.63;;;5.70;37.10;;;;;;5026955;28;20453;-72
2022/12/01 12:08:40;;;;;;;39.77;22.30;;;5.70;37.00;;;;;;5018552;28;20495;-71
2022/12/01 12:11:15;;;;;;;40.23;22.30;;;5.70;37.00;;;;;;5028120;28;20970;-70
2022/12/01 12:14:02;;;;;;;44.50;21.33;;;5.60;36.80;;;;;;5025631;28;20455;-69
2022/12/01 12:16:43;;;;;;;37.27;22.07;;;5.60;37.10;;;;;;5017139;28;20459;-69
2022/12/01 12:19:31;;;;;;;37.10;21.73;;;5.60;37.10;;;;;;5019024;28;20482;-67
2022/12/01 12:22:17;;;;;;;40.50;22.83;;;5.60;37.10;;;;;;5029038;28;20463;-66
2022/12/01 12:25:07;;;;;;;38.17;21.60;;;5.60;37.20;;;;;;5018777;28;20463;-72
2022/12/01 12:27:43;;;;;;;38.80;21.13;;;5.60;37.20;;;;;;5019435;28;20489;-70
2022/12/01 12:30:21;;;;;;;41.60;21.77;;;5.60;37.20;;;;;;5029162;28;20469;-70
2022/12/01 12:33:27;;;;;;;36.47;22.70;;;5.60;37.40;;;;;;5028729;28;20479;-71
2022/12/01 12:36:04;;;;;;;37.37;20.73;;;5.60;37.30;;;;;;5021438;28;20474;-71
2022/12/01 12:38:52;;;;;;;41.43;23.13;;;5.60;37.30;;;;;;5023857;28;20483;-65
2022/12/01 12:41:28;;;;;;;37.70;20.70;;;5.60;37.30;;;;;;5029213;28;21042;-67
2022/12/01 12:44:10;;;;;;;35.10;19.90;;;5.60;37.30;;;;;;5018293;28;20469;-69
2022/12/01 12:46:47;;;;;;;37.20;20.80;;;5.50;37.20;;;;;;5021893;28;20468;-69
2022/12/01 12:49:27;;;;;;;40.80;23.20;;;5.50;37.20;;;;;;5027306;28;20489;-70
2022/12/01 12:52:00;;;;;;;36.40;21.30;;;5.50;37.40;;;;;;5026552;28;20840;-71
2022/12/01 12:54:32;;;;;;;39.63;22.00;;;5.50;37.40;;;;;;5019672;28;20466;-68
2022/12/01 12:57:02;;;;;;;41.33;22.27;;;5.50;37.40;;;;;;5030077;28;20991;-67